KCBF/CBF METAR and TAF weather

Enter ICAO airport designator
Station Type Date Time Source
KCBF METAR 2020/02/21 00:35 UTC NOAA

KCBF 210035Z AUTO 21006KT 10SM CLR M04/M12 A3066 RMK AO2


Station Type Date Time Source
KCBF Decoded METAR 2020/02/21 00:35 UTC NOAA

Council Bluffs, IA, United States (KCBF) 41-16N 095-46W
Feb 20, 2020 - 07:35 PM EST / 2020.02.21 0035 UTC
Wind: from the SSW (210 degrees) at 7 MPH (6 KT):0
Visibility: 10 mile(s):0
Sky conditions: clear
Temperature: 24 F (-4 C)
Windchill: 15 F (-9 C):1
Dew Point: 10 F (-12 C)
Relative Humidity: 53%
Pressure (altimeter): 30.66 in. Hg (1038 hPa)
ob: KCBF 210035Z AUTO 21006KT 10SM CLR M04/M12 A3066 RMK AO2
cycle: 0

Station Type Date Time Source
KCBF TAF UTC NOAA

Error!

Example: see airport list